Time;durP1;ratioP1;P1;durP2;ratioP2;P2;SDS_P1;SDS_P2;PMS_P1;PMS_P2;Temp;Humidity;BMP_temperature;BMP_pressure;BME280_temperature;BME280_humidity;BME280_pressure;Samples;Min_cycle;Max_cycle;Signal;HPM_P1;HPM_P2
2022/12/27 00:00:16;;;;;;;;;;;;;;;-6.26;76.29;100712.50;5107292;28;19967;-67
2022/12/27 00:02:41;;;;;;;;;;;;;;;-6.24;76.33;100710.56;5102669;28;19928;-66
2022/12/27 00:05:08;;;;;;;;;;;;;;;-6.21;76.59;100702.28;5085652;28;20384;-66
2022/12/27 00:07:34;;;;;;;;;;;;;;;-6.17;76.30;100703.66;5096988;28;19974;-66
2022/12/27 00:10:01;;;;;;;;;;;;;;;-6.17;75.72;100690.34;5108316;28;19959;-67
2022/12/27 00:12:28;;;;;;;;;;;;;;;-6.17;75.29;100700.16;5099202;28;19981;-66
2022/12/27 00:14:53;;;;;;;;;;;;;;;-6.16;74.83;100702.69;5095542;28;20356;-67
2022/12/27 00:17:19;;;;;;;;;;;;;;;-6.16;74.28;100701.88;5083410;28;20462;-67
2022/12/27 00:19:45;;;;;;;;;;;;;;;-6.16;74.45;100694.69;5083917;28;19928;-66
2022/12/27 00:22:10;;;;;;;;;;;;;;;-6.15;74.26;100688.38;5086469;28;20031;-66
2022/12/27 00:24:36;;;;;;;;;;;;;;;-6.16;74.01;100685.88;5085525;28;19928;-66
2022/12/27 00:27:04;;;;;;;;;;;;;;;-6.25;73.70;100690.22;5094152;28;20413;-66
2022/12/27 00:29:30;;;;;;;;;;;;;;;-6.33;73.85;100695.44;5105555;28;19967;-66
2022/12/27 00:31:56;;;;;;;;;;;;;;;-6.35;74.21;100698.22;5104554;28;19966;-67
2022/12/27 00:34:21;;;;;;;;;;;;;;;-6.31;74.71;100698.78;5097465;28;19981;-66
2022/12/27 00:36:47;;;;;;;;;;;;;;;-6.29;75.12;100700.34;5084233;28;19955;-66
2022/12/27 00:39:13;;;;;;;;;;;;;;;-6.27;75.42;100697.50;5094514;28;20465;-66
2022/12/27 00:41:38;;;;;;;;;;;;;;;-6.33;75.27;100695.44;5104613;28;19927;-66
2022/12/27 00:44:06;;;;;;;;;;;;;;;-6.34;74.99;100685.78;5101247;28;19928;-66
2022/12/27 00:46:31;;;;;;;;;;;;;;;-6.36;74.91;100677.09;5082223;28;19928;-66
2022/12/27 00:49:00;;;;;;;;;;;;;;;-6.39;74.77;100682.69;5083655;28;19935;-66
2022/12/27 00:51:26;;;;;;;;;;;;;;;-6.43;74.67;100669.66;5093298;28;19932;-66
2022/12/27 00:53:51;;;;;;;;;;;;;;;-6.44;74.82;100677.81;5103798;28;19996;-66
2022/12/27 00:56:18;;;;;;;;;;;;;;;-6.42;74.88;100660.69;5088299;28;19932;-66
2022/12/27 00:58:44;;;;;;;;;;;;;;;-6.35;75.00;100654.81;5085340;28;19927;-66
2022/12/27 01:01:12;;;;;;;;;;;;;;;-6.35;74.82;100639.66;5084848;28;19928;-66
2022/12/27 01:03:38;;;;;;;;;;;;;;;-6.45;74.98;100621.06;5098380;28;19936;-66
2022/12/27 01:06:04;;;;;;;;;;;;;;;-6.33;75.17;100627.03;5096792;28;19932;-66
2022/12/27 01:08:30;;;;;;;;;;;;;;;-6.32;75.14;100631.41;5086489;28;20283;-66
2022/12/27 01:10:56;;;;;;;;;;;;;;;-6.26;75.45;100624.66;5087147;28;20179;-66
2022/12/27 01:13:21;;;;;;;;;;;;;;;-6.19;75.29;100620.44;5068134;28;19963;-66
2022/12/27 01:15:47;;;;;;;;;;;;;;;-6.14;75.21;100628.00;5098367;28;20285;-66
2022/12/27 01:18:14;;;;;;;;;;;;;;;-6.15;75.24;100618.34;5089257;27;19934;-66
2022/12/27 01:20:40;;;;;;;;;;;;;;;-6.16;75.22;100609.50;5103797;28;19927;-64
2022/12/27 01:23:05;;;;;;;;;;;;;;;-6.13;75.13;100611.84;5085997;28;20066;-64
2022/12/27 01:25:31;;;;;;;;;;;;;;;-6.13;74.81;100613.69;5088246;28;20336;-65
2022/12/27 01:27:57;;;;;;;;;;;;;;;-6.15;74.59;100597.03;5093879;28;19955;-65
2022/12/27 01:30:23;;;;;;;;;;;;;;;-6.10;74.46;100605.41;5084303;28;20023;-66
2022/12/27 01:32:48;;;;;;;;;;;;;;;-6.07;74.23;100599.78;5083930;28;20425;-66
2022/12/27 01:35:16;;;;;;;;;;;;;;;-6.05;73.95;100595.16;5084291;28;19963;-65
2022/12/27 01:37:43;;;;;;;;;;;;;;;-6.05;73.75;100589.00;5084724;28;19935;-65
2022/12/27 01:40:09;;;;;;;;;;;;;;;-6.11;73.33;100585.09;5082899;28;19928;-65
2022/12/27 01:42:54;;;;;;;;;;;;;;;-6.10;73.75;100577.94;5083321;28;20030;-65
2022/12/27 01:45:21;;;;;;;;;;;;;;;-6.04;73.66;100578.19;5083878;28;19935;-65
2022/12/27 01:47:52;;;;;;;;;;;;;;;-5.98;73.56;100574.91;5083447;28;20449;-65
2022/12/27 01:50:23;;;;;;;;;;;;;;;-5.99;73.40;100569.72;5102989;28;20292;-65
2022/12/27 01:52:52;;;;;;;;;;;;;;;-5.99;73.67;100569.72;5104722;28;19927;-65
2022/12/27 01:55:21;;;;;;;;;;;;;;;-6.02;73.72;100575.38;5105205;28;19928;-65
2022/12/27 01:57:48;;;;;;;;;;;;;;;-6.03;73.98;100568.38;5105784;28;20030;-64
2022/12/27 02:00:14;;;;;;;;;;;;;;;-6.06;73.80;100566.03;5090388;27;19928;-65
2022/12/27 02:02:40;;;;;;;;;;;;;;;-6.04;73.68;100566.72;5084246;28;19928;-65
2022/12/27 02:05:06;;;;;;;;;;;;;;;-6.04;73.61;100564.88;5082683;28;19935;-65
2022/12/27 02:07:38;;;;;;;;;;;;;;;-6.02;73.51;100567.41;5083571;28;19928;-64
2022/12/27 02:10:04;;;;;;;;;;;;;;;-5.99;73.28;100561.72;5085816;28;19939;-64
2022/12/27 02:12:30;;;;;;;;;;;;;;;-5.99;73.07;100551.94;5087549;28;19928;-65
2022/12/27 02:14:57;;;;;;;;;;;;;;;-6.01;72.64;100540.59;5103851;28;19942;-65
2022/12/27 02:17:24;;;;;;;;;;;;;;;-6.07;72.85;100541.19;5102657;27;20391;-65
2022/12/27 02:19:55;;;;;;;;;;;;;;;-6.08;72.83;100542.19;5102924;28;19931;-65
2022/12/27 02:25:36;;;;;;;;;;;;;;;-6.12;72.88;100548.81;5099143;28;19951;-65
2022/12/27 02:28:13;;;;;;;;;;;;;;;-6.06;72.94;100547.38;5102919;28;20395;-65
2022/12/27 02:30:43;;;;;;;;;;;;;;;-6.07;72.90;100538.53;5103910;28;19928;-64
2022/12/27 02:33:15;;;;;;;;;;;;;;;-6.07;72.66;100543.03;5080456;28;20030;-65
2022/12/27 02:35:43;;;;;;;;;;;;;;;-6.14;72.69;100527.63;5083007;28;19928;-65
2022/12/27 02:38:11;;;;;;;;;;;;;;;-6.18;72.80;100542.22;5079612;28;20327;-66
2022/12/27 02:54:46;;;;;;;;;;;;;;;-6.05;72.69;100523.25;5102810;28;19928;-64
2022/12/27 02:57:17;;;;;;;;;;;;;;;-6.04;72.53;100519.59;5104612;28;20024;-65
2022/12/27 03:03:22;;;;;;;;;;;;;;;-6.03;72.45;100513.28;5097023;28;19932;-65
2022/12/27 03:08:43;;;;;;;;;;;;;;;-6.09;72.42;100495.25;5081559;28;19928;-66
2022/12/27 03:16:54;;;;;;;;;;;;;;;-6.12;72.77;100466.25;5083130;28;19960;-67
2022/12/27 03:27:40;;;;;;;;;;;;;;;-6.18;73.04;100449.03;5102429;28;19931;-65
2022/12/27 03:33:14;;;;;;;;;;;;;;;-6.21;72.88;100433.38;5106688;28;20418;-65
2022/12/27 03:35:41;;;;;;;;;;;;;;;-6.25;72.95;100439.97;5105524;28;19927;-65
2022/12/27 03:38:11;;;;;;;;;;;;;;;-6.23;72.92;100439.81;5107017;28;19928;-65
2022/12/27 03:43:30;;;;;;;;;;;;;;;-6.19;72.90;100434.06;5106925;28;20016;-66
2022/12/27 03:49:07;;;;;;;;;;;;;;;-6.17;73.01;100432.09;5085215;28;19928;-66
2022/12/27 03:51:36;;;;;;;;;;;;;;;-6.21;72.99;100413.88;5078414;28;19935;-67
2022/12/27 03:54:05;;;;;;;;;;;;;;;-6.10;72.98;100421.66;5085178;28;20459;-67
2022/12/27 03:56:31;;;;;;;;;;;;;;;-6.07;72.97;100417.88;5085716;28;20027;-67
2022/12/27 03:58:58;;;;;;;;;;;;;;;-6.10;72.78;100415.50;5084403;28;20026;-67
2022/12/27 04:01:24;;;;;;;;;;;;;;;-6.11;73.00;100409.34;5097911;28;19927;-67
2022/12/27 04:03:49;;;;;;;;;;;;;;;-6.09;72.89;100409.16;5106962;28;19934;-67
2022/12/27 04:06:15;;;;;;;;;;;;;;;-6.11;72.81;100417.34;5107065;28;19985;-67
2022/12/27 04:36:08;;;;;;;;;;;;;;;-6.18;72.61;100357.66;5104637;28;19928;-67
2022/12/27 04:38:34;;;;;;;;;;;;;;;-6.15;72.88;100362.72;5100073;28;19935;-67
2022/12/27 04:54:57;;;;;;;;;;;;;;;-6.20;73.23;100336.53;5083376;28;19935;-65
2022/12/27 04:57:22;;;;;;;;;;;;;;;-6.17;73.25;100338.88;5096897;28;20423;-65
2022/12/27 05:02:34;;;;;;;;;;;;;;;-6.23;73.22;100334.19;5083878;28;19935;-65
2022/12/27 05:05:00;;;;;;;;;;;;;;;-6.27;73.66;100323.00;5082883;28;19928;-65
2022/12/27 05:15:39;;;;;;;;;;;;;;;-6.36;74.63;100307.91;5108326;28;19928;-65
2022/12/27 05:18:05;;;;;;;;;;;;;;;-6.36;74.95;100301.78;5103781;28;19927;-65
2022/12/27 05:20:32;;;;;;;;;;;;;;;-6.31;74.86;100297.69;5104087;28;19934;-66
2022/12/27 05:25:43;;;;;;;;;;;;;;;-6.41;75.15;100319.00;5088983;28;19943;-65
2022/12/27 05:28:10;;;;;;;;;;;;;;;-6.38;75.20;100309.91;5084948;28;20380;-66
2022/12/27 05:30:36;;;;;;;;;;;;;;;-6.36;75.20;100317.75;5084288;28;20299;-65
2022/12/27 05:33:04;;;;;;;;;;;;;;;-6.33;75.12;100309.44;5097191;28;19996;-67
2022/12/27 05:35:29;;;;;;;;;;;;;;;-6.35;75.19;100306.09;5091808;28;20145;-65
2022/12/27 05:37:55;;;;;;;;;;;;;;;-6.37;75.34;100284.13;5105087;28;20059;-65
2022/12/27 05:40:22;;;;;;;;;;;;;;;-6.35;75.32;100279.50;5106475;28;19935;-66
2022/12/27 05:42:47;;;;;;;;;;;;;;;-6.33;75.52;100290.81;5106377;28;19928;-66
2022/12/27 05:45:13;;;;;;;;;;;;;;;-6.32;75.47;100285.34;5105472;28;19981;-65
2022/12/27 05:47:39;;;;;;;;;;;;;;;-6.29;75.62;100281.53;5103622;28;19928;-65
2022/12/27 05:50:06;;;;;;;;;;;;;;;-6.31;75.54;100279.03;5097592;27;19932;-66
2022/12/27 05:52:32;;;;;;;;;;;;;;;-6.34;75.66;100281.16;5085686;28;19927;-65
2022/12/27 05:54:58;;;;;;;;;;;;;;;-6.34;75.70;100266.00;5083663;28;20015;-65
2022/12/27 05:57:24;;;;;;;;;;;;;;;-6.33;75.68;100267.69;5086034;28;19973;-66
2022/12/27 05:59:58;;;;;;;;;;;;;;;-6.25;75.74;100266.09;5022097;28;9999850;-65
2022/12/27 06:02:23;;;;;;;;;;;;;;;-6.19;75.62;100268.97;5080684;28;20019;-65
2022/12/27 06:04:49;;;;;;;;;;;;;;;-6.18;75.68;100264.47;5097404;28;19951;-67
2022/12/27 06:07:16;;;;;;;;;;;;;;;-6.18;75.50;100261.81;5091521;28;20031;-67
2022/12/27 06:09:42;;;;;;;;;;;;;;;-6.18;75.57;100264.47;5068817;28;20383;-67
2022/12/27 06:12:08;;;;;;;;;;;;;;;-6.18;75.58;100253.81;5080325;28;20306;-67
2022/12/27 06:14:34;;;;;;;;;;;;;;;-6.16;75.47;100258.03;5090558;28;19928;-67
2022/12/27 06:17:00;;;;;;;;;;;;;;;-6.17;75.38;100253.69;5087317;28;19928;-67
2022/12/27 06:19:26;;;;;;;;;;;;;;;-6.16;75.64;100266.00;5082293;28;20038;-67
2022/12/27 06:21:51;;;;;;;;;;;;;;;-6.14;75.65;100271.19;5092058;28;19935;-67
2022/12/27 06:24:18;;;;;;;;;;;;;;;-6.15;75.56;100264.19;5089915;28;20326;-66
2022/12/27 06:26:44;;;;;;;;;;;;;;;-6.25;75.76;100261.59;5102324;28;19928;-66
2022/12/27 06:29:10;;;;;;;;;;;;;;;-6.28;75.79;100254.78;5103030;28;19928;-67
2022/12/27 06:31:36;;;;;;;;;;;;;;;-6.29;76.34;100258.44;5105224;28;19934;-66
2022/12/27 06:34:02;;;;;;;;;;;;;;;-6.25;76.74;100260.78;5095284;28;19927;-66
2022/12/27 06:36:29;;;;;;;;;;;;;;;-6.25;76.68;100256.28;5072993;28;20303;-66
2022/12/27 06:38:55;;;;;;;;;;;;;;;-6.26;76.64;100257.25;5082843;28;19932;-66
2022/12/27 06:41:22;;;;;;;;;;;;;;;-6.23;76.95;100250.81;5079081;28;20456;-66
2022/12/27 06:43:52;;;;;;;;;;;;;;;-6.22;76.88;100252.47;5073024;28;20031;-67
2022/12/27 06:46:18;;;;;;;;;;;;;;;-6.22;76.71;100244.50;5072576;28;20023;-66
2022/12/27 06:48:44;;;;;;;;;;;;;;;-6.18;76.75;100240.53;5074705;28;20031;-67
2022/12/27 06:51:11;;;;;;;;;;;;;;;-6.18;76.66;100244.03;5044143;28;19928;-67
2022/12/27 06:53:36;;;;;;;;;;;;;;;-6.16;76.79;100235.91;5092656;28;19935;-67
2022/12/27 06:56:02;;;;;;;;;;;;;;;-6.17;76.49;100223.56;5098208;28;19935;-67
2022/12/27 06:58:30;;;;;;;;;;;;;;;-6.14;76.56;100226.75;5099003;28;19963;-65
2022/12/27 07:00:55;;;;;;;;;;;;;;;-6.10;76.40;100215.78;5097514;28;19963;-66
2022/12/27 07:03:21;;;;;;;;;;;;;;;-6.10;76.50;100221.97;5101712;28;19959;-65
2022/12/27 07:05:47;;;;;;;;;;;;;;;-6.10;76.53;100218.44;5097246;28;19957;-65
2022/12/27 07:08:12;;;;;;;;;;;;;;;-6.13;76.37;100215.09;5095878;28;20322;-65
2022/12/27 07:10:38;;;;;;;;;;;;;;;-6.10;76.60;100218.44;5090616;28;19928;-65
2022/12/27 07:13:04;;;;;;;;;;;;;;;-6.07;76.51;100218.16;5096290;28;20474;-65
2022/12/27 07:15:31;;;;;;;;;;;;;;;-6.03;76.57;100216.84;5092351;28;19955;-65
2022/12/27 07:17:58;;;;;;;;;;;;;;;-6.02;76.13;100208.69;5090597;28;19928;-65
2022/12/27 07:20:24;;;;;;;;;;;;;;;-6.03;76.24;100209.69;5092745;28;19928;-65
2022/12/27 07:22:50;;;;;;;;;;;;;;;-6.04;76.29;100193.88;5091667;28;19934;-66
2022/12/27 07:25:15;;;;;;;;;;;;;;;-6.03;76.39;100192.88;5091697;28;19932;-65
2022/12/27 07:27:41;;;;;;;;;;;;;;;-6.00;76.21;100182.72;5087902;28;20075;-65
2022/12/27 07:30:07;;;;;;;;;;;;;;;-5.97;76.22;100178.88;5095621;28;20310;-67
2022/12/27 07:32:35;;;;;;;;;;;;;;;-5.95;76.16;100182.22;5092886;28;19928;-66
2022/12/27 07:35:01;;;;;;;;;;;;;;;-5.93;76.40;100171.44;5092120;28;19932;-67
2022/12/27 07:37:28;;;;;;;;;;;;;;;-5.90;76.10;100161.31;5094811;28;19938;-67
2022/12/27 07:39:54;;;;;;;;;;;;;;;-5.92;76.26;100165.97;5091986;28;20262;-67
2022/12/27 07:42:20;;;;;;;;;;;;;;;-5.88;76.28;100177.97;5093345;28;19928;-67
2022/12/27 07:44:47;;;;;;;;;;;;;;;-5.87;76.41;100158.31;5091307;28;19954;-66
2022/12/27 07:47:12;;;;;;;;;;;;;;;-5.84;76.66;100157.19;5091868;28;19928;-66
2022/12/27 07:49:40;;;;;;;;;;;;;;;-5.80;76.73;100166.50;5093480;28;20390;-66
2022/12/27 07:52:05;;;;;;;;;;;;;;;-5.76;76.89;100159.03;5089949;28;19934;-66
2022/12/27 07:54:31;;;;;;;;;;;;;;;-5.68;77.22;100150.25;5090616;28;19928;-67
2022/12/27 07:56:57;;;;;;;;;;;;;;;-5.72;77.00;100147.06;5091037;28;19932;-67
2022/12/27 07:59:22;;;;;;;;;;;;;;;-5.76;77.24;100151.88;5084081;28;20018;-66
2022/12/27 08:02:03;;;;;;;;;;;;;;;-5.78;77.25;100153.00;5093069;28;19948;-66
2022/12/27 08:04:29;;;;;;;;;;;;;;;-5.76;77.58;100143.88;5092708;28;19931;-67
2022/12/27 08:07:00;;;;;;;;;;;;;;;-5.86;77.71;100124.50;5089177;28;20391;-67
2022/12/27 08:09:28;;;;;;;;;;;;;;;-5.78;77.85;100137.03;5092588;28;19927;-67
2022/12/27 08:11:53;;;;;;;;;;;;;;;-5.79;77.73;100132.69;5091668;28;20778;-67
2022/12/27 08:14:19;;;;;;;;;;;;;;;-5.85;77.85;100126.22;5091170;28;19928;-65
2022/12/27 08:16:45;;;;;;;;;;;;;;;-5.85;78.09;100120.88;5091148;28;19932;-65
2022/12/27 08:19:11;;;;;;;;;;;;;;;-5.82;77.97;100117.03;5095824;28;19928;-66
2022/12/27 08:21:36;;;;;;;;;;;;;;;-5.82;78.00;100117.88;5096775;27;20420;-65
2022/12/27 08:24:04;;;;;;;;;;;;;;;-5.79;78.26;100101.56;5095028;28;19928;-65
2022/12/27 08:26:30;;;;;;;;;;;;;;;-5.78;77.93;100099.72;5095086;28;20398;-66
2022/12/27 08:28:55;;;;;;;;;;;;;;;-5.78;78.08;100094.41;5096624;28;19934;-65
2022/12/27 08:31:21;;;;;;;;;;;;;;;-5.82;78.15;100087.75;5096220;28;20514;-66
2022/12/27 08:33:47;;;;;;;;;;;;;;;-5.83;78.25;100084.25;5094370;28;20363;-65
2022/12/27 08:36:14;;;;;;;;;;;;;;;-5.84;78.18;100094.06;5089677;28;19927;-65
2022/12/27 08:38:39;;;;;;;;;;;;;;;-5.82;78.54;100088.59;5094307;28;19934;-65
2022/12/27 08:41:09;;;;;;;;;;;;;;;-5.78;78.41;100091.75;5093646;28;19934;-65
2022/12/27 08:43:35;;;;;;;;;;;;;;;-5.74;78.52;100085.94;5083382;28;20026;-65
2022/12/27 08:46:01;;;;;;;;;;;;;;;-5.68;78.55;100089.78;5085256;28;19934;-66
2022/12/27 08:48:27;;;;;;;;;;;;;;;-5.73;78.77;100082.28;5092540;28;20361;-66
2022/12/27 08:50:53;;;;;;;;;;;;;;;-5.70;78.95;100070.47;5096690;28;19927;-65
2022/12/27 08:53:19;;;;;;;;;;;;;;;-5.67;79.21;100074.66;5092130;28;19928;-65
2022/12/27 08:55:44;;;;;;;;;;;;;;;-5.64;79.33;100064.47;5094563;28;19981;-65
2022/12/27 08:58:11;;;;;;;;;;;;;;;-5.60;79.64;100051.69;5096468;28;19932;-65
2022/12/27 09:00:37;;;;;;;;;;;;;;;-5.58;79.82;100057.69;5091007;28;20030;-65
2022/12/27 09:03:03;;;;;;;;;;;;;;;-5.58;80.02;100039.88;5088748;28;20019;-65
2022/12/27 09:05:29;;;;;;;;;;;;;;;-5.61;80.36;100048.19;5085707;28;19977;-65
2022/12/27 09:07:54;;;;;;;;;;;;;;;-5.63;80.42;100028.03;5084074;28;20357;-66
2022/12/27 09:10:21;;;;;;;;;;;;;;;-5.59;80.56;100029.34;5082293;28;20382;-66
2022/12/27 09:12:47;;;;;;;;;;;;;;;-5.53;80.61;100028.72;5091383;28;19992;-66
2022/12/27 09:15:14;;;;;;;;;;;;;;;-5.49;80.46;100019.41;5092534;28;20338;-66
2022/12/27 09:17:40;;;;;;;;;;;;;;;-5.39;80.45;100021.06;5093567;28;19993;-66
2022/12/27 09:20:06;;;;;;;;;;;;;;;-5.39;79.96;100011.25;5094083;28;19928;-65
2022/12/27 09:22:32;;;;;;;;;;;;;;;-5.44;80.10;100022.38;5096128;28;20030;-65
2022/12/27 09:24:58;;;;;;;;;;;;;;;-5.46;80.02;100020.91;5085467;28;20047;-66
2022/12/27 09:27:23;;;;;;;;;;;;;;;-5.53;80.10;100015.41;5084979;28;20453;-65
2022/12/27 09:29:49;;;;;;;;;;;;;;;-5.57;80.10;100009.56;5089645;28;19985;-66
2022/12/27 09:32:16;;;;;;;;;;;;;;;-5.57;79.96;100000.72;5087275;28;19927;-65
2022/12/27 09:34:42;;;;;;;;;;;;;;;-5.59;80.12;100008.88;5096020;28;19981;-65
2022/12/27 09:37:08;;;;;;;;;;;;;;;-5.55;80.30;100007.56;5092841;28;20721;-65
2022/12/27 09:39:34;;;;;;;;;;;;;;;-5.53;80.22;100006.56;5094783;28;19950;-66
2022/12/27 09:42:07;;;;;;;;;;;;;;;-5.55;80.20;100004.88;5093816;28;19927;-65
2022/12/27 09:44:36;;;;;;;;;;;;;;;-5.52;80.17;99993.06;5096390;28;20038;-66
2022/12/27 09:47:04;;;;;;;;;;;;;;;-5.52;80.14;99997.56;5094676;28;19928;-66
2022/12/27 09:49:37;;;;;;;;;;;;;;;-5.57;80.24;99993.56;5092182;28;19935;-65
2022/12/27 09:52:05;;;;;;;;;;;;;;;-5.64;80.30;99979.22;5092089;28;20450;-65
2022/12/27 09:54:35;;;;;;;;;;;;;;;-5.57;80.36;99996.22;5092144;28;20037;-65
2022/12/27 09:57:01;;;;;;;;;;;;;;;-5.51;80.39;99985.91;5084108;28;19927;-65
2022/12/27 09:59:29;;;;;;;;;;;;;;;-5.45;80.41;99982.59;5095163;28;20352;-65
2022/12/27 10:01:55;;;;;;;;;;;;;;;-5.44;80.30;99992.25;5093850;28;19955;-66
2022/12/27 10:04:21;;;;;;;;;;;;;;;-5.42;80.56;99988.41;5089908;28;19935;-66
2022/12/27 10:07:01;;;;;;;;;;;;;;;-5.38;80.43;99980.91;5093079;28;19932;-65
2022/12/27 10:09:38;;;;;;;;;;;;;;;-5.36;80.53;99976.25;5079029;28;19932;-65
2022/12/27 10:12:12;;;;;;;;;;;;;;;-5.36;80.29;99978.09;5093656;28;20004;-65
2022/12/27 10:14:47;;;;;;;;;;;;;;;-5.37;80.42;99963.09;5094645;28;20043;-65
2022/12/27 10:17:18;;;;;;;;;;;;;;;-5.39;80.45;99957.94;5093018;28;19932;-65
2022/12/27 10:19:48;;;;;;;;;;;;;;;-5.38;80.62;99954.25;5090469;28;19928;-65
2022/12/27 10:22:22;;;;;;;;;;;;;;;-5.35;80.72;99953.91;5082446;28;20395;-66
2022/12/27 10:24:49;;;;;;;;;;;;;;;-5.38;80.70;99954.25;5093981;28;19928;-65
2022/12/27 10:27:20;;;;;;;;;;;;;;;-5.37;80.83;99953.25;5096897;28;19959;-65
2022/12/27 10:29:47;;;;;;;;;;;;;;;-5.37;80.99;99945.25;5073746;28;19927;-66
2022/12/27 10:32:14;;;;;;;;;;;;;;;-5.31;81.12;99952.59;5098359;28;19954;-67
2022/12/27 10:34:40;;;;;;;;;;;;;;;-5.29;80.96;99945.28;5104403;28;19935;-66
2022/12/27 10:37:07;;;;;;;;;;;;;;;-5.31;81.03;99939.28;5104342;28;19927;-66
2022/12/27 10:39:37;;;;;;;;;;;;;;;-5.28;81.03;99932.75;5105969;28;20289;-66
2022/12/27 10:42:08;;;;;;;;;;;;;;;-5.24;81.23;99923.41;5100220;28;20007;-66
2022/12/27 10:44:34;;;;;;;;;;;;;;;-5.23;81.01;99926.94;5087139;28;20318;-66
2022/12/27 10:47:00;;;;;;;;;;;;;;;-5.20;81.09;99919.44;5090898;28;19928;-66
2022/12/27 10:49:27;;;;;;;;;;;;;;;-5.15;81.49;99914.41;5093370;28;20414;-66
2022/12/27 10:51:56;;;;;;;;;;;;;;;-5.15;81.45;99914.41;5088308;28;19973;-66
2022/12/27 10:54:23;;;;;;;;;;;;;;;-5.13;81.44;99903.59;5083750;28;19932;-66
2022/12/27 10:56:51;;;;;;;;;;;;;;;-5.12;81.47;99905.25;5092599;28;19963;-66
2022/12/27 10:59:20;;;;;;;;;;;;;;;-5.15;81.53;99889.56;5089083;28;19938;-66
2022/12/27 11:01:49;;;;;;;;;;;;;;;-5.11;81.61;99882.91;5074843;28;19975;-66
2022/12/27 11:04:17;;;;;;;;;;;;;;;-5.09;81.85;99893.41;5091839;28;19938;-66
2022/12/27 11:06:44;;;;;;;;;;;;;;;-5.06;81.98;99890.41;5092877;28;19928;-66
2022/12/27 11:09:33;;;;;;;;;;;;;;;-5.03;82.15;99885.53;5089977;28;19935;-67
2022/12/27 11:12:20;;;;;;;;;;;;;;;-4.99;82.26;99878.03;5079144;28;19989;-66
2022/12/27 11:14:53;;;;;;;;;;;;;;;-4.99;82.27;99870.03;5092264;28;20411;-66
2022/12/27 11:17:20;;;;;;;;;;;;;;;-4.97;82.43;99864.56;5093483;28;20402;-66
2022/12/27 11:19:46;;;;;;;;;;;;;;;-4.96;82.48;99860.88;5091390;28;19997;-66
2022/12/27 11:22:12;;;;;;;;;;;;;;;-4.99;82.48;99849.56;5090597;28;19967;-66
2022/12/27 11:24:43;;;;;;;;;;;;;;;-4.93;82.72;99847.19;5088034;28;19950;-66
2022/12/27 11:27:18;;;;;;;;;;;;;;;-4.93;82.88;99826.66;5091575;28;19934;-66
2022/12/27 11:29:45;;;;;;;;;;;;;;;-4.90;82.90;99834.34;5088527;28;19932;-66
2022/12/27 11:32:11;;;;;;;;;;;;;;;-4.90;82.96;99837.00;5091453;28;20306;-66
2022/12/27 11:34:38;;;;;;;;;;;;;;;-4.89;83.22;99832.50;5092541;28;20361;-66
2022/12/27 11:37:05;;;;;;;;;;;;;;;-4.90;83.23;99831.69;5089913;28;19938;-66
2022/12/27 11:39:37;;;;;;;;;;;;;;;-4.89;83.19;99829.81;5091674;28;19993;-66
2022/12/27 11:42:05;;;;;;;;;;;;;;;-4.89;83.11;99841.34;5090045;28;20357;-66
2022/12/27 11:44:32;;;;;;;;;;;;;;;-4.89;83.23;99830.69;5089743;28;20341;-66
2022/12/27 11:47:02;;;;;;;;;;;;;;;-4.89;83.22;99816.50;5087019;28;19934;-66
2022/12/27 11:49:31;;;;;;;;;;;;;;;-4.87;83.22;99817.16;5088627;28;19935;-66
2022/12/27 11:52:15;;;;;;;;;;;;;;;-4.87;83.29;99820.66;5091723;28;19944;-66
2022/12/27 11:55:04;;;;;;;;;;;;;;;-4.85;83.35;99812.47;5095615;28;20032;-66
2022/12/27 11:57:40;;;;;;;;;;;;;;;-4.86;83.49;99816.97;5081270;28;19928;-66
2022/12/27 12:00:12;;;;;;;;;;;;;;;-4.81;83.37;99807.63;5092639;28;20347;-66
2022/12/27 12:02:49;;;;;;;;;;;;;;;-4.79;83.44;99805.59;5095921;28;19928;-66
2022/12/27 12:05:33;;;;;;;;;;;;;;;-4.79;83.54;99800.28;5096986;28;19950;-66
2022/12/27 12:08:09;;;;;;;;;;;;;;;-4.75;83.86;99801.59;5080002;28;20018;-66
2022/12/27 12:10:44;;;;;;;;;;;;;;;-4.83;83.91;99789.13;5088478;28;19934;-66
2022/12/27 12:13:33;;;;;;;;;;;;;;;-4.72;83.84;99802.06;5085774;28;19935;-66
2022/12/27 12:16:25;;;;;;;;;;;;;;;-4.73;83.88;99795.06;5092876;28;19935;-67
2022/12/27 12:19:06;;;;;;;;;;;;;;;-4.72;84.27;99802.06;5083547;28;20396;-66
2022/12/27 12:21:35;;;;;;;;;;;;;;;-4.71;84.30;99792.25;5096037;28;20014;-66
2022/12/27 12:24:16;;;;;;;;;;;;;;;-4.70;84.43;99800.06;5094073;28;20451;-66
2022/12/27 12:26:49;;;;;;;;;;;;;;;-4.67;84.58;99787.38;5092088;28;19930;-66
2022/12/27 12:29:31;;;;;;;;;;;;;;;-4.68;84.57;99781.22;4390247;27;10000417;-66
2022/12/27 12:32:08;;;;;;;;;;;;;;;-4.65;84.70;99780.84;5089119;28;20318;-66
2022/12/27 12:34:42;;;;;;;;;;;;;;;-4.57;84.75;99774.63;4735359;28;10000025;-66
2022/12/27 12:37:14;;;;;;;;;;;;;;;-4.54;84.86;99768.13;5086922;28;19928;-66
2022/12/27 12:39:54;;;;;;;;;;;;;;;-4.53;84.82;99761.78;5090903;28;19928;-66
2022/12/27 12:42:25;;;;;;;;;;;;;;;-4.53;84.89;99757.25;5086020;28;20100;-66
2022/12/27 12:45:08;;;;;;;;;;;;;;;-4.52;84.86;99758.94;5084034;28;19928;-66
2022/12/27 12:47:48;;;;;;;;;;;;;;;-4.53;84.93;99754.56;5090710;28;19936;-66
2022/12/27 12:50:21;;;;;;;;;;;;;;;-4.49;84.91;99755.06;5081827;28;19932;-66
2022/12/27 12:52:59;;;;;;;;;;;;;;;-4.49;84.95;99752.41;5085091;28;19932;-67
2022/12/27 12:55:32;;;;;;;;;;;;;;;-4.46;85.13;99744.03;5076084;28;20402;-67
2022/12/27 12:58:04;;;;;;;;;;;;;;;-4.47;84.79;99747.69;5097593;28;19970;-66
2022/12/27 13:00:39;;;;;;;;;;;;;;;-4.50;84.99;99750.75;5093741;28;20322;-66
2022/12/27 13:03:20;;;;;;;;;;;;;;;-4.45;85.41;99748.34;5091474;28;19928;-65
2022/12/27 13:05:50;;;;;;;;;;;;;;;-4.39;85.21;99744.16;5090733;28;20395;-66
2022/12/27 13:08:20;;;;;;;;;;;;;;;-4.34;85.34;99737.25;5092974;28;20569;-66
2022/12/27 13:11:03;;;;;;;;;;;;;;;-4.33;85.21;99736.25;5094480;28;19934;-66
2022/12/27 13:13:37;;;;;;;;;;;;;;;-4.33;85.17;99738.94;5084421;28;19931;-65
2022/12/27 13:16:13;;;;;;;;;;;;;;;-4.31;85.24;99720.88;5084408;28;20327;-65
2022/12/27 13:18:44;;;;;;;;;;;;;;;-4.30;85.44;99711.84;5070547;28;20382;-66
2022/12/27 13:21:15;;;;;;;;;;;;;;;-4.29;85.41;99721.56;5084311;28;19934;-67
2022/12/27 13:23:45;;;;;;;;;;;;;;;-4.31;85.52;99717.41;5090839;28;20027;-66
2022/12/27 13:26:16;;;;;;;;;;;;;;;-4.30;85.65;99711.06;5083705;28;19932;-66
2022/12/27 13:28:48;;;;;;;;;;;;;;;-4.27;85.89;99703.50;5082533;28;19951;-66
2022/12/27 13:31:22;;;;;;;;;;;;;;;-4.26;86.00;99717.69;5091010;28;20381;-66
2022/12/27 13:33:54;;;;;;;;;;;;;;;-4.27;85.96;99713.34;5096818;28;19934;-65
2022/12/27 13:36:25;;;;;;;;;;;;;;;-4.31;86.10;99699.53;5092585;28;19928;-66
2022/12/27 13:39:13;;;;;;;;;;;;;;;-4.27;86.23;99713.34;5103701;28;19950;-66
2022/12/27 13:41:44;;;;;;;;;;;;;;;-4.24;86.31;99701.50;5093388;28;20769;-66
2022/12/27 13:44:24;;;;;;;;;;;;;;;-4.23;86.48;99690.59;5090590;28;19928;-66
2022/12/27 13:46:56;;;;;;;;;;;;;;;-4.22;86.35;99696.78;5081004;28;20008;-65
2022/12/27 13:49:30;;;;;;;;;;;;;;;-4.19;86.51;99694.59;5086012;28;20331;-65
2022/12/27 13:52:05;;;;;;;;;;;;;;;-4.16;86.64;99693.38;5087045;28;19990;-66
2022/12/27 13:54:48;;;;;;;;;;;;;;;-4.12;86.71;99686.69;5088794;28;19958;-66
2022/12/27 13:57:25;;;;;;;;;;;;;;;-4.07;86.42;99691.47;5087112;28;20434;-66
2022/12/27 13:59:56;;;;;;;;;;;;;;;-4.09;86.44;99688.16;5090205;28;19954;-66
2022/12/27 14:02:37;;;;;;;;;;;;;;;-4.08;86.55;99679.97;5053268;28;19928;-66
2022/12/27 14:05:21;;;;;;;;;;;;;;;-4.03;86.51;99677.56;5069478;28;20394;-65
2022/12/27 14:07:56;;;;;;;;;;;;;;;-4.00;86.57;99684.41;5092457;28;20407;-66
2022/12/27 14:10:31;;;;;;;;;;;;;;;-3.96;86.47;99680.34;5093925;28;19935;-67
2022/12/27 14:12:58;;;;;;;;;;;;;;;-3.94;86.27;99680.19;5098558;28;20309;-66
2022/12/27 14:15:27;;;;;;;;;;;;;;;-3.94;86.46;99674.84;5100132;28;19939;-66
2022/12/27 14:18:00;;;;;;;;;;;;;;;-3.93;86.51;99684.50;5102424;28;19934;-68
2022/12/27 14:20:49;;;;;;;;;;;;;;;-4.00;86.55;99658.50;5089343;28;19960;-66
2022/12/27 14:23:29;;;;;;;;;;;;;;;-3.87;86.60;99662.41;5069049;28;20196;-67
2022/12/27 14:26:14;;;;;;;;;;;;;;;-3.85;86.69;99671.91;5084226;28;20473;-66
2022/12/27 14:28:53;;;;;;;;;;;;;;;-3.85;86.87;99665.72;5084812;28;19932;-67
2022/12/27 14:31:43;;;;;;;;;;;;;;;-3.81;87.06;99672.38;5093851;28;20268;-67